Language selection

Weather shortcuts

West Coast Haida Gwaii: Past 24 Hour Conditions

 

West Sea Otter - 46204

10:00 PM PDT 16 April 2026Buoy position: 51.4N 128.69W
Disclaimer

This table is a summary of hourly weather conditions for the past 24 hours.
Please note that these observations might not always be representative of weather conditions over their associated marine area.

Date / Time
(PDT)
Wind(knots) Wave height(m) Wave period(s) Pressure(kPa) Air tempC) Water tempC)
16 April 2026
22:00 WNW 5 gusts 6 1.00 7.4 102.7 8 9
21:00 WNW 6 gusts 8 0.96 8.7 102.7 8 9
20:00 WNW 6 gusts 8 1.08 9.1 102.7 8 9
19:00 WNW 5 gusts 7 0.99 7.7 102.7 8 10
18:00 NNW 3 gusts 6 1.11 9.1 102.7 8 9
17:00 NW 2 gusts 3 1.06 8.3 102.7 8 9
16:00 NE 3 gusts 4 1.04 9.1 102.6 8 9
15:00 WNW 2 gusts 4 1.21 9.1 102.6 8 9
14:00 NE 2 gusts 3 1.33 8.7 102.6 8 9
13:00 N 5 gusts 6 1.47 9.5 102.5 7 9
12:00 WNW 4 gusts 6 1.46 8.7 102.5 7 9
11:00 NW 5 gusts 8 1.44 9.5 102.5 7 9
10:00 WSW 8 gusts 10 1.50 8.7 102.4 7 9
9:00 NW 8 gusts 10 1.54 9.5 102.4 8 8
8:00 NNW 9 gusts 10 1.68 9.1 102.4 8 8
7:00 NW 10 gusts 12 1.77 9.5 102.3 8 8
6:00 NNW 14 gusts 16 1.69 9.1 102.3 8 8
5:00 NW 16 gusts 19 1.73 10.0 102.2 8 8
4:00 WNW 16 gusts 20 1.56 9.5 102.2 8 9
3:00 WNW 14 gusts 17 1.67 10.0 102.1 8 9
2:00 WNW 12 gusts 16 1.71 10.0 102.1 8 9
1:00 W 12 gusts 15 1.77 9.5 102.1 8 9
0:00 WNW 12 gusts 15 1.75 8.0 102.0 8 9
15 April 2026
23:00 NW 11 gusts 13 2.00 9.5 102.0 8 9
22:00 NW 13 gusts 16 1.94 9.5 101.9 8 9

Zoom-in to make a selection

Map of Pacific - North Coast marine weather areas Masset Municipal Airport South Moresby - 46147 Bonilla Island Bella Coola Airport North Hecate Strait - 46183 Bella Bella Airport North Nomad - 46184 Sandspit Airport South Hecate Strait - 46185 Rose Spit Nanakwa Shoal - 46181 Langara Island Kindakun Rocks West Sea Otter - 46204 Cape St.James West Dixon Entrance - 46205 Sartine Island West Moresby - 46208 East Dellwood - 46207 Middle Nomad - 46004 South Nomad - 46036 Cathedral Point Prince Rupert Airport Lucy Islands Lightstation Holland Rock Dixon Entrance Central - 46145 Grey Islet Cumshewa Island
Legend:
buoy Buoy
land station Land Station

Pacific - North Coast Area

Another Region

Features

Colour-coded weather alerts

Learn more about weather alerting in Canada

Date modified: